createdAt,value
2022-12-31T00:01:18.395Z,0.40
2022-12-31T00:03:45.003Z,0.68
2022-12-31T00:06:30.935Z,1.10
2022-12-31T00:09:00.064Z,0.63
2022-12-31T00:11:28.504Z,0.43
2022-12-31T00:13:55.936Z,0.63
2022-12-31T00:16:25.813Z,0.60
2022-12-31T00:18:55.135Z,0.65
2022-12-31T00:21:22.637Z,1.05
2022-12-31T00:23:49.598Z,0.90
2022-12-31T00:26:18.910Z,0.87
2022-12-31T00:28:45.710Z,1.42
2022-12-31T00:31:13.745Z,0.90
2022-12-31T00:33:40.939Z,0.73
2022-12-31T00:36:10.396Z,1.15
2022-12-31T00:38:38.433Z,1.20
2022-12-31T00:41:05.990Z,0.98
2022-12-31T00:43:32.845Z,0.82
2022-12-31T00:46:00.030Z,1.05
2022-12-31T00:48:27.171Z,0.40
2022-12-31T00:50:55.654Z,0.73
2022-12-31T00:53:23.122Z,0.95
2022-12-31T00:55:50.211Z,1.00
2022-12-31T00:58:16.947Z,0.60
2022-12-31T01:00:43.631Z,0.50
2022-12-31T01:03:10.782Z,0.57
2022-12-31T01:05:38.471Z,0.40
2022-12-31T01:08:05.612Z,0.77
2022-12-31T01:10:50.496Z,0.82
2022-12-31T01:13:16.992Z,1.23
2022-12-31T01:15:43.525Z,0.53
2022-12-31T01:18:10.928Z,0.95
2022-12-31T01:20:39.254Z,0.85
2022-12-31T01:23:07.783Z,0.60
2022-12-31T01:25:39.136Z,0.80
2022-12-31T01:28:06.477Z,0.73
2022-12-31T01:30:33.001Z,0.85
2022-12-31T01:32:59.556Z,0.70
2022-12-31T01:35:26.040Z,0.75
2022-12-31T01:37:52.526Z,0.77
2022-12-31T01:40:19.203Z,0.40
2022-12-31T01:42:45.700Z,0.73
2022-12-31T01:45:14.170Z,0.43
2022-12-31T01:47:48.035Z,1.17
2022-12-31T01:50:33.814Z,0.40
2022-12-31T01:53:03.756Z,0.83
2022-12-31T01:55:35.104Z,0.50
2022-12-31T01:58:08.460Z,0.80
2022-12-31T02:00:35.432Z,0.60
2022-12-31T02:03:03.544Z,0.70
2022-12-31T02:05:41.214Z,0.60
2022-12-31T02:08:08.504Z,0.70
2022-12-31T02:10:35.674Z,0.65
2022-12-31T02:13:02.640Z,1.02
2022-12-31T02:16:06.747Z,0.60
2022-12-31T02:18:43.647Z,1.50
2022-12-31T02:21:43.998Z,0.95
2022-12-31T02:24:38.350Z,1.10
2022-12-31T02:27:18.419Z,1.33
2022-12-31T02:29:47.893Z,0.60
2022-12-31T02:32:24.184Z,0.90
2022-12-31T02:35:00.876Z,0.73
2022-12-31T02:37:30.533Z,0.55
2022-12-31T02:39:58.439Z,1.15
2022-12-31T02:42:24.924Z,0.55
2022-12-31T02:44:51.403Z,0.43
2022-12-31T02:47:43.105Z,0.70
2022-12-31T02:50:38.711Z,0.50
2022-12-31T02:53:14.522Z,0.93
2022-12-31T02:56:08.599Z,0.50
2022-12-31T02:59:03.225Z,0.40
2022-12-31T03:01:54.255Z,0.45
2022-12-31T03:04:32.027Z,0.40
2022-12-31T03:07:23.438Z,0.32
2022-12-31T03:09:50.571Z,0.47
2022-12-31T03:12:37.621Z,0.43
2022-12-31T03:15:06.736Z,0.40
2022-12-31T03:17:34.058Z,0.40
2022-12-31T03:20:19.487Z,0.47
2022-12-31T03:22:46.113Z,0.68
2022-12-31T03:25:34.217Z,0.30
2022-12-31T03:28:02.963Z,0.50
2022-12-31T03:30:30.932Z,0.35
2022-12-31T03:32:58.054Z,0.40
2022-12-31T03:35:26.233Z,0.32
2022-12-31T03:37:53.630Z,0.40
2022-12-31T03:40:22.027Z,0.63
2022-12-31T03:42:48.510Z,0.30
2022-12-31T03:45:15.625Z,0.40
2022-12-31T03:47:42.423Z,0.30
2022-12-31T03:50:11.332Z,0.43
2022-12-31T03:52:38.329Z,0.10
2022-12-31T03:55:05.398Z,0.10
2022-12-31T03:57:31.952Z,0.10
2022-12-31T03:59:58.539Z,0.10
2022-12-31T04:02:28.956Z,0.00
2022-12-31T04:04:56.084Z,0.10
2022-12-31T04:07:22.706Z,0.10
2022-12-31T04:09:49.350Z,0.20
2022-12-31T04:12:15.871Z,0.00
2022-12-31T04:14:42.442Z,0.10
2022-12-31T04:17:08.995Z,0.00
2022-12-31T04:19:35.563Z,0.00
2022-12-31T04:22:02.034Z,0.00
2022-12-31T04:24:28.646Z,0.10
2022-12-31T04:26:55.173Z,0.00
2022-12-31T04:29:21.804Z,0.05
2022-12-31T04:31:48.322Z,0.00
2022-12-31T04:34:15.025Z,0.10
2022-12-31T04:36:41.524Z,0.65
2022-12-31T04:39:08.639Z,0.20
2022-12-31T04:41:35.194Z,0.30
2022-12-31T04:44:01.720Z,0.22
2022-12-31T04:46:31.244Z,0.20
2022-12-31T04:48:58.697Z,0.30
2022-12-31T04:51:26.551Z,0.50
2022-12-31T04:53:53.448Z,1.38
2022-12-31T04:56:20.335Z,0.90
2022-12-31T04:58:47.196Z,0.77
2022-12-31T05:01:14.822Z,0.55
2022-12-31T05:03:41.642Z,0.50
2022-12-31T05:06:15.657Z,0.95
2022-12-31T05:08:42.979Z,1.02
2022-12-31T05:11:10.180Z,0.93
2022-12-31T05:13:37.097Z,1.67
2022-12-31T05:16:04.395Z,0.90
2022-12-31T05:18:32.269Z,0.98
2022-12-31T05:20:58.870Z,1.23
2022-12-31T05:23:25.576Z,1.80
2022-12-31T05:25:52.477Z,2.33
2022-12-31T05:28:19.651Z,1.47
2022-12-31T05:30:50.092Z,1.65
2022-12-31T05:33:17.492Z,1.80
2022-12-31T05:35:44.151Z,1.50
2022-12-31T05:38:10.983Z,2.00
2022-12-31T05:40:37.445Z,2.13
2022-12-31T05:43:03.910Z,1.17
2022-12-31T05:45:31.138Z,0.65
2022-12-31T05:47:58.445Z,1.63
2022-12-31T05:50:25.359Z,1.48
2022-12-31T05:52:51.885Z,1.70
2022-12-31T05:55:18.553Z,2.30
2022-12-31T05:57:45.024Z,1.05
2022-12-31T06:00:12.081Z,0.98
2022-12-31T06:02:38.604Z,0.88
2022-12-31T06:05:05.604Z,1.90
2022-12-31T06:07:32.240Z,1.70
2022-12-31T06:09:58.846Z,1.98
2022-12-31T06:12:25.479Z,1.38
2022-12-31T06:14:51.979Z,1.50
2022-12-31T06:17:20.664Z,1.53
2022-12-31T06:19:47.171Z,1.40
2022-12-31T06:22:14.043Z,1.67
2022-12-31T06:24:40.566Z,2.72
2022-12-31T06:27:07.104Z,1.48
2022-12-31T06:29:33.659Z,0.97
2022-12-31T06:32:00.168Z,1.55
2022-12-31T06:34:26.774Z,1.10
2022-12-31T06:36:53.344Z,1.73
2022-12-31T06:39:19.899Z,1.48
2022-12-31T06:41:46.456Z,1.83
2022-12-31T06:44:14.527Z,2.40
2022-12-31T06:46:41.065Z,2.13
2022-12-31T06:49:07.574Z,0.98
2022-12-31T06:51:34.056Z,1.50
2022-12-31T06:54:00.557Z,1.20
2022-12-31T06:56:34.064Z,1.20
2022-12-31T06:59:02.472Z,1.17
2022-12-31T07:01:34.928Z,0.98
2022-12-31T07:04:04.265Z,1.10
2022-12-31T07:06:58.939Z,0.50
2022-12-31T07:09:34.773Z,0.85
2022-12-31T07:12:13.930Z,0.65
2022-12-31T07:14:43.596Z,0.70
2022-12-31T07:17:28.424Z,0.63
2022-12-31T07:20:05.334Z,1.00
2022-12-31T07:22:32.152Z,0.73
2022-12-31T07:24:59.191Z,0.65
2022-12-31T07:27:50.342Z,1.35
2022-12-31T07:30:22.341Z,1.23
2022-12-31T07:33:06.878Z,0.80
2022-12-31T07:36:05.611Z,0.88
2022-12-31T07:38:48.629Z,1.02
2022-12-31T07:41:54.937Z,0.93
2022-12-31T07:44:48.831Z,1.35
2022-12-31T07:47:24.207Z,1.03
2022-12-31T07:49:51.536Z,0.77
2022-12-31T07:52:18.870Z,1.80
2022-12-31T07:54:45.868Z,1.02
2022-12-31T07:57:14.226Z,0.90
2022-12-31T08:00:09.288Z,1.00
2022-12-31T08:03:01.893Z,0.80
2022-12-31T08:05:38.813Z,0.82
2022-12-31T08:08:12.320Z,1.75
2022-12-31T08:10:53.306Z,1.38
2022-12-31T08:13:20.963Z,1.00
2022-12-31T08:15:48.332Z,1.27
2022-12-31T08:18:15.110Z,1.33
2022-12-31T08:21:09.416Z,1.48
2022-12-31T08:24:09.454Z,1.65
2022-12-31T08:26:53.179Z,1.20
2022-12-31T08:29:53.791Z,2.17
2022-12-31T08:32:29.922Z,1.77
2022-12-31T08:35:28.384Z,1.50
2022-12-31T08:38:17.391Z,2.42
2022-12-31T08:41:29.463Z,1.80
2022-12-31T08:44:07.808Z,1.60
2022-12-31T08:46:44.902Z,2.88
2022-12-31T08:49:11.895Z,1.73
2022-12-31T08:51:38.680Z,2.50
2022-12-31T08:54:05.534Z,1.50
2022-12-31T08:56:36.338Z,1.45
2022-12-31T08:59:15.134Z,2.20
2022-12-31T09:01:53.792Z,1.17
2022-12-31T09:04:33.795Z,1.00
2022-12-31T09:07:03.258Z,2.53
2022-12-31T09:10:04.252Z,1.60
2022-12-31T09:12:45.396Z,1.58
2022-12-31T09:15:24.215Z,1.45
2022-12-31T09:17:51.185Z,1.77
2022-12-31T09:20:36.332Z,1.10
2022-12-31T09:23:08.930Z,1.63
2022-12-31T09:25:57.520Z,1.73
2022-12-31T09:28:30.142Z,0.90
2022-12-31T09:31:02.513Z,0.93
2022-12-31T09:33:59.993Z,1.30
2022-12-31T09:36:50.027Z,0.82
2022-12-31T09:39:40.433Z,1.92
2022-12-31T09:42:37.905Z,1.45
2022-12-31T09:45:24.778Z,1.08
2022-12-31T09:48:06.575Z,1.43
2022-12-31T09:51:12.688Z,1.20
2022-12-31T09:53:47.460Z,0.90
2022-12-31T09:56:30.846Z,1.13
2022-12-31T09:59:05.514Z,1.10
2022-12-31T10:01:46.449Z,1.87
2022-12-31T10:04:34.908Z,0.90
2022-12-31T10:07:28.857Z,1.77
2022-12-31T10:10:04.997Z,1.30
2022-12-31T10:13:10.751Z,1.88
2022-12-31T10:16:04.378Z,1.37
2022-12-31T10:18:46.011Z,1.27
2022-12-31T10:21:37.218Z,1.58
2022-12-31T10:24:22.420Z,1.23
2022-12-31T10:26:58.490Z,1.02
2022-12-31T10:29:39.567Z,1.40
2022-12-31T10:32:16.150Z,1.13
2022-12-31T10:34:45.504Z,0.57
2022-12-31T10:37:18.358Z,0.90
2022-12-31T10:40:52.605Z,0.70
2022-12-31T10:43:28.007Z,0.87
2022-12-31T10:46:16.381Z,1.00
2022-12-31T10:49:02.650Z,1.15
2022-12-31T10:52:01.237Z,0.80
2022-12-31T10:55:06.527Z,0.60
2022-12-31T10:57:47.996Z,0.80
2022-12-31T11:00:22.127Z,0.57
2022-12-31T11:03:13.405Z,0.60
2022-12-31T11:06:07.687Z,0.40
2022-12-31T11:09:02.252Z,0.28
2022-12-31T11:11:44.721Z,0.40
2022-12-31T11:14:48.973Z,0.30
2022-12-31T11:17:33.916Z,0.47
2022-12-31T11:20:12.522Z,0.35
2022-12-31T11:22:55.438Z,0.10
2022-12-31T11:25:48.201Z,0.10
2022-12-31T11:28:44.170Z,0.10
2022-12-31T11:31:58.115Z,0.10
2022-12-31T11:34:51.954Z,0.25
2022-12-31T11:37:47.634Z,0.45
2022-12-31T11:40:38.988Z,0.30
2022-12-31T11:43:36.154Z,0.10
2022-12-31T11:46:41.342Z,0.20
2022-12-31T11:49:10.952Z,0.10
2022-12-31T11:51:50.018Z,0.10
2022-12-31T11:54:42.365Z,0.10
2022-12-31T11:57:16.971Z,0.10
2022-12-31T11:59:43.672Z,0.20
2022-12-31T12:02:30.054Z,0.10
2022-12-31T12:05:05.024Z,0.30
2022-12-31T12:07:36.802Z,0.20
2022-12-31T12:10:14.841Z,0.50
2022-12-31T12:12:42.805Z,0.60
2022-12-31T12:15:11.324Z,0.50
2022-12-31T12:17:39.235Z,0.45
2022-12-31T12:20:19.667Z,0.40
2022-12-31T12:22:51.464Z,0.45
2022-12-31T12:25:21.296Z,0.50
2022-12-31T12:27:48.400Z,0.60
2022-12-31T12:30:21.667Z,0.70
2022-12-31T12:32:57.396Z,1.27
2022-12-31T12:35:26.804Z,0.70
2022-12-31T12:38:15.949Z,1.23
2022-12-31T12:40:59.342Z,1.08
2022-12-31T12:43:31.791Z,0.70
2022-12-31T12:46:26.133Z,1.30
2022-12-31T12:48:58.145Z,0.63
2022-12-31T12:51:24.608Z,1.00
2022-12-31T12:54:11.320Z,0.73
2022-12-31T12:57:00.569Z,1.02
2022-12-31T13:00:07.537Z,0.50
2022-12-31T13:02:54.969Z,0.80
2022-12-31T13:05:31.892Z,1.40
2022-12-31T13:08:10.554Z,1.40
2022-12-31T13:11:01.304Z,1.35
2022-12-31T13:13:49.587Z,1.10
2022-12-31T13:16:37.998Z,1.55
2022-12-31T13:19:29.518Z,1.20
2022-12-31T13:22:29.760Z,1.50
2022-12-31T13:25:08.081Z,1.60
2022-12-31T13:27:37.684Z,1.47
2022-12-31T13:30:14.734Z,1.67
2022-12-31T13:32:46.094Z,1.38
2022-12-31T13:35:24.514Z,1.13
2022-12-31T13:38:04.811Z,1.38
2022-12-31T13:40:48.240Z,0.67
2022-12-31T13:43:35.211Z,1.17
2022-12-31T13:46:22.403Z,1.30
2022-12-31T13:48:54.507Z,1.77
2022-12-31T13:51:34.134Z,1.48
2022-12-31T13:54:17.901Z,1.83
2022-12-31T13:56:46.020Z,1.35
2022-12-31T13:59:20.515Z,2.05
2022-12-31T14:01:58.861Z,1.90
2022-12-31T14:04:43.383Z,1.10
2022-12-31T14:07:26.706Z,1.60
2022-12-31T14:09:58.435Z,2.15
2022-12-31T14:12:30.511Z,1.23
2022-12-31T14:15:03.009Z,1.05
2022-12-31T14:17:44.115Z,1.73
2022-12-31T14:20:39.829Z,1.27
2022-12-31T14:23:24.535Z,1.70
2022-12-31T14:26:05.932Z,1.60
2022-12-31T14:28:47.101Z,1.67
2022-12-31T14:31:30.000Z,1.23
2022-12-31T14:33:59.230Z,2.37
2022-12-31T14:36:34.328Z,2.22
2022-12-31T14:39:10.447Z,2.53
2022-12-31T14:41:51.071Z,2.05
2022-12-31T14:44:58.920Z,2.53
2022-12-31T14:47:56.610Z,2.03
2022-12-31T14:50:26.288Z,2.28
2022-12-31T14:53:07.894Z,2.03
2022-12-31T14:55:35.870Z,2.67
2022-12-31T14:58:28.669Z,2.90
2022-12-31T15:01:09.033Z,2.97
2022-12-31T15:03:44.967Z,1.85
2022-12-31T15:06:35.161Z,3.08
2022-12-31T15:09:23.204Z,3.72
2022-12-31T15:12:21.532Z,3.55
2022-12-31T15:14:57.794Z,3.37
2022-12-31T15:17:33.395Z,3.88
2022-12-31T15:20:24.539Z,3.20
2022-12-31T15:22:53.385Z,2.35
2022-12-31T15:25:19.827Z,2.75
2022-12-31T15:27:47.439Z,3.00
2022-12-31T15:30:37.626Z,3.97
2022-12-31T15:33:16.849Z,2.90
2022-12-31T15:35:47.384Z,3.25
2022-12-31T15:38:13.863Z,3.08
2022-12-31T15:40:49.448Z,2.87
2022-12-31T15:43:24.997Z,3.13
2022-12-31T15:45:54.215Z,1.95
2022-12-31T15:48:30.898Z,2.78
2022-12-31T15:51:00.257Z,3.00
2022-12-31T15:53:32.208Z,4.00
2022-12-31T15:56:00.507Z,4.05
2022-12-31T15:58:31.782Z,3.70
2022-12-31T16:01:15.580Z,3.10
2022-12-31T16:03:54.427Z,4.15
2022-12-31T16:06:21.317Z,3.47
2022-12-31T16:08:49.597Z,2.90
2022-12-31T16:11:17.345Z,3.42
2022-12-31T16:13:50.687Z,3.13
2022-12-31T16:16:31.954Z,4.00
2022-12-31T16:18:59.065Z,2.67
2022-12-31T16:21:37.624Z,2.80
2022-12-31T16:24:07.127Z,3.42
2022-12-31T16:26:49.642Z,3.00
2022-12-31T16:29:19.123Z,2.45
2022-12-31T16:31:47.338Z,4.00
2022-12-31T16:34:17.699Z,3.25
2022-12-31T16:37:02.304Z,3.22
2022-12-31T16:39:39.502Z,2.00
2022-12-31T16:42:20.869Z,2.47
2022-12-31T16:44:48.805Z,3.57
2022-12-31T16:47:20.294Z,2.72
2022-12-31T16:49:52.523Z,3.25
2022-12-31T16:52:30.687Z,2.80
2022-12-31T16:54:57.655Z,2.50
2022-12-31T16:57:29.110Z,2.57
2022-12-31T17:00:03.107Z,2.60
2022-12-31T17:02:44.233Z,3.00
2022-12-31T17:05:25.898Z,2.67
2022-12-31T17:07:53.022Z,1.73
2022-12-31T17:10:36.503Z,2.63
2022-12-31T17:13:27.588Z,3.30
2022-12-31T17:15:56.885Z,3.58
2022-12-31T17:18:27.208Z,3.35
2022-12-31T17:20:55.161Z,2.72
2022-12-31T17:23:34.145Z,2.63
2022-12-31T17:26:07.856Z,2.58
2022-12-31T17:28:45.625Z,3.47
2022-12-31T17:31:36.558Z,3.53
2022-12-31T17:34:12.217Z,3.47
2022-12-31T17:36:40.686Z,3.53
2022-12-31T17:39:22.916Z,3.10
2022-12-31T17:41:56.151Z,2.05
2022-12-31T17:44:28.094Z,3.85
2022-12-31T17:46:54.765Z,2.63
2022-12-31T17:49:27.222Z,3.93
2022-12-31T17:51:53.915Z,3.58
2022-12-31T17:54:20.489Z,2.20
2022-12-31T17:56:47.320Z,3.20
2022-12-31T17:59:23.247Z,1.67
2022-12-31T18:01:50.166Z,3.60
2022-12-31T18:04:19.072Z,3.30
2022-12-31T18:06:45.590Z,2.97
2022-12-31T18:09:12.307Z,3.88
2022-12-31T18:11:40.358Z,2.78
2022-12-31T18:14:07.370Z,3.10
2022-12-31T18:16:34.017Z,1.70
2022-12-31T18:19:01.220Z,2.50
2022-12-31T18:21:30.720Z,1.80
2022-12-31T18:26:24.118Z,1.93
2022-12-31T18:28:51.352Z,2.22
2022-12-31T18:31:27.092Z,2.35
2022-12-31T18:33:55.819Z,1.63
2022-12-31T18:36:24.104Z,2.00
2022-12-31T18:38:50.914Z,2.38
2022-12-31T18:41:28.949Z,3.10
2022-12-31T18:43:56.086Z,2.50
2022-12-31T18:46:24.185Z,2.43
2022-12-31T18:48:50.801Z,2.25
2022-12-31T18:51:26.488Z,2.38
2022-12-31T18:53:57.981Z,2.65
2022-12-31T18:56:25.243Z,1.95
2022-12-31T18:58:52.266Z,1.97
2022-12-31T19:01:37.838Z,2.25
2022-12-31T19:04:11.117Z,2.72
2022-12-31T19:06:37.633Z,2.33
2022-12-31T19:09:13.236Z,2.30
2022-12-31T19:11:50.899Z,3.77
2022-12-31T19:14:21.590Z,2.95
2022-12-31T19:16:48.922Z,2.78
2022-12-31T19:19:15.476Z,3.17
2022-12-31T19:21:42.828Z,2.92
2022-12-31T19:24:19.023Z,3.83
2022-12-31T19:26:45.535Z,3.50
2022-12-31T19:29:23.393Z,2.17
2022-12-31T19:31:50.461Z,3.05
2022-12-31T19:34:17.066Z,4.10
2022-12-31T19:36:44.419Z,3.13
2022-12-31T19:39:17.389Z,2.70
2022-12-31T19:41:44.724Z,2.30
2022-12-31T19:44:19.434Z,2.17
2022-12-31T19:46:46.914Z,3.70
2022-12-31T19:49:14.662Z,3.20
2022-12-31T19:51:42.248Z,3.85
2022-12-31T19:54:10.562Z,2.95
2022-12-31T19:56:37.581Z,2.47
2022-12-31T19:59:09.430Z,3.35
2022-12-31T20:01:36.222Z,3.20
2022-12-31T20:04:02.820Z,2.90
2022-12-31T20:06:29.288Z,3.15
2022-12-31T20:08:55.804Z,3.13
2022-12-31T20:11:24.114Z,2.30
2022-12-31T20:13:53.520Z,4.47
2022-12-31T20:16:23.279Z,2.85
2022-12-31T20:18:50.579Z,2.60
2022-12-31T20:21:20.593Z,2.60
2022-12-31T20:23:48.517Z,1.98
2022-12-31T20:26:15.492Z,2.97
2022-12-31T20:28:42.043Z,2.20
2022-12-31T20:31:15.268Z,1.65
2022-12-31T20:33:42.122Z,1.55
2022-12-31T20:36:10.716Z,1.88
2022-12-31T20:38:37.360Z,2.23
2022-12-31T20:41:04.997Z,2.22
2022-12-31T20:43:32.604Z,2.50
2022-12-31T20:45:59.792Z,2.03
2022-12-31T20:48:26.349Z,1.85
2022-12-31T20:50:58.947Z,1.90
2022-12-31T20:53:25.553Z,2.35
2022-12-31T20:55:52.120Z,1.50
2022-12-31T20:58:18.750Z,1.50
2022-12-31T21:00:49.560Z,2.35
2022-12-31T21:03:53.827Z,0.90
2022-12-31T21:06:05.170Z,1.65
2022-12-31T21:08:34.983Z,1.80
2022-12-31T21:11:02.499Z,1.30
2022-12-31T21:13:29.272Z,1.30
2022-12-31T21:15:56.023Z,1.27
2022-12-31T21:18:23.271Z,1.33
2022-12-31T21:20:51.629Z,1.40
2022-12-31T21:23:20.014Z,1.23
2022-12-31T21:25:50.404Z,1.15
2022-12-31T21:28:17.031Z,1.13
2022-12-31T21:30:43.595Z,0.60
2022-12-31T21:33:10.167Z,1.40
2022-12-31T21:35:48.618Z,0.75
2022-12-31T21:38:19.924Z,0.95
2022-12-31T21:40:46.811Z,0.40
2022-12-31T21:43:16.556Z,0.50
2022-12-31T21:45:43.695Z,0.50
2022-12-31T21:48:21.276Z,1.13
2022-12-31T21:50:49.939Z,0.57
2022-12-31T21:53:23.663Z,0.40
2022-12-31T21:56:11.390Z,1.75
2022-12-31T21:59:23.015Z,0.80
2022-12-31T22:02:07.908Z,0.63
2022-12-31T22:07:20.911Z,1.20
2022-12-31T22:09:47.410Z,1.08
2022-12-31T22:12:13.953Z,3.03
2022-12-31T22:15:15.102Z,1.17
2022-12-31T22:17:27.490Z,0.50
2022-12-31T22:20:25.207Z,1.10
2022-12-31T22:22:40.353Z,1.67
2022-12-31T22:25:07.171Z,1.45
2022-12-31T22:27:33.646Z,1.42
2022-12-31T22:30:00.226Z,1.13
2022-12-31T22:32:26.742Z,1.00
2022-12-31T22:34:53.258Z,1.42
2022-12-31T22:37:55.142Z,0.85
2022-12-31T22:40:06.541Z,1.27
2022-12-31T22:42:33.022Z,1.00
2022-12-31T22:44:59.499Z,1.37
2022-12-31T22:47:26.082Z,0.77
2022-12-31T22:49:52.591Z,0.73
2022-12-31T22:52:19.104Z,1.00
2022-12-31T22:54:45.570Z,1.20
2022-12-31T22:57:17.801Z,1.00
2022-12-31T22:59:46.558Z,1.17
2022-12-31T23:02:13.089Z,0.88
2022-12-31T23:04:39.971Z,0.90
2022-12-31T23:07:07.532Z,1.15
2022-12-31T23:09:52.624Z,1.77
2022-12-31T23:12:19.171Z,1.40
2022-12-31T23:15:04.358Z,1.42
2022-12-31T23:17:49.211Z,1.05
2022-12-31T23:20:38.161Z,1.45
2022-12-31T23:23:09.794Z,0.90
2022-12-31T23:25:43.207Z,1.13
2022-12-31T23:28:13.638Z,1.25
2022-12-31T23:30:40.885Z,0.73
2022-12-31T23:33:08.776Z,1.10
2022-12-31T23:35:35.384Z,1.23
2022-12-31T23:38:01.864Z,0.90
2022-12-31T23:40:34.461Z,0.93
2022-12-31T23:43:05.434Z,1.08
2022-12-31T23:45:33.639Z,0.40
2022-12-31T23:48:00.369Z,0.40
2022-12-31T23:50:27.261Z,0.80
2022-12-31T23:52:54.121Z,0.60
2022-12-31T23:55:20.970Z,1.13
2022-12-31T23:57:47.461Z,1.17
